KSOW/SOW METAR and TAF weather

Enter ICAO airport designator
Station Type Date Time Source
KSOW METAR 2019/08/25 13:55 UTC NOAA

KSOW 251355Z AUTO 17004KT 10SM CLR 19/14 A3033 RMK AO2


Station Type Date Time Source
KSOW Decoded METAR 2019/08/25 13:55 UTC NOAA

Station name not available
Aug 25, 2019 - 09:55 AM EDT / 2019.08.25 1355 UTC
Wind: from the S (170 degrees) at 5 MPH (4 KT):0
Visibility: 10 mile(s):0
Sky conditions: clear
Temperature: 66 F (19 C)
Dew Point: 57 F (14 C)
Relative Humidity: 72%
Pressure (altimeter): 30.33 in. Hg (1027 hPa)
ob: KSOW 251355Z AUTO 17004KT 10SM CLR 19/14 A3033 RMK AO2
cycle: 14

Station Type Date Time Source
KSOW TAF UTC NOAA

Error!

Example: see airport list